createdAt,value
2022-11-05T17:53:55.748Z,10.93
2022-11-05T17:54:58.518Z,12.23
2022-11-05T17:56:01.491Z,13.73
2022-11-05T17:57:06.668Z,13.93
2022-11-05T17:58:12.339Z,12.43
2022-11-05T17:59:18.263Z,13.27
2022-11-05T18:00:24.978Z,12.02
2022-11-05T18:01:32.692Z,12.55
2022-11-05T18:02:35.903Z,13.15
2022-11-05T18:03:39.382Z,13.45
2022-11-05T18:05:07.685Z,13.90
2022-11-05T18:06:49.323Z,12.88
2022-11-05T18:09:23.065Z,14.27
2022-11-05T18:10:41.177Z,13.73
2022-11-05T18:11:47.301Z,14.73
2022-11-05T18:12:50.454Z,15.07
2022-11-05T18:13:53.683Z,14.23
2022-11-05T18:14:56.483Z,15.27
2022-11-05T18:16:22.366Z,15.38
2022-11-05T18:17:26.992Z,17.73
2022-11-05T18:18:39.318Z,17.52
2022-11-05T18:19:49.022Z,15.50
2022-11-05T18:20:52.005Z,14.18
2022-11-05T18:21:55.371Z,15.10
2022-11-05T18:22:58.049Z,14.75
2022-11-05T18:24:03.908Z,13.77
2022-11-05T18:25:11.913Z,14.30
2022-11-05T18:26:24.999Z,15.18
2022-11-05T18:27:28.095Z,13.30
2022-11-05T18:28:37.184Z,14.63
2022-11-05T18:29:40.710Z,13.63
2022-11-05T18:30:44.100Z,13.57
2022-11-05T18:31:50.949Z,12.10
2022-11-05T18:32:57.222Z,12.88
2022-11-05T18:34:07.542Z,13.60
2022-11-05T18:35:10.251Z,13.57
2022-11-05T18:36:26.642Z,13.80
2022-11-05T18:37:35.440Z,13.18
2022-11-05T18:38:41.569Z,13.73
2022-11-05T18:39:44.339Z,14.20
2022-11-05T18:41:17.837Z,14.57
2022-11-05T18:42:30.167Z,14.07
2022-11-05T18:43:33.826Z,13.40
2022-11-05T18:44:46.335Z,13.80
2022-11-05T18:45:58.870Z,14.00
2022-11-05T18:47:06.231Z,14.15
2022-11-05T18:48:12.213Z,14.10
2022-11-05T18:49:15.356Z,14.50
2022-11-05T18:50:21.209Z,14.50
2022-11-05T18:51:29.820Z,14.75
2022-11-05T18:52:33.691Z,13.90
2022-11-05T18:53:36.460Z,14.38
2022-11-05T18:54:39.058Z,15.02
2022-11-05T18:55:42.006Z,15.38
2022-11-05T18:56:47.571Z,14.68
2022-11-05T18:57:50.022Z,14.20
2022-11-05T18:59:08.612Z,15.05
2022-11-05T19:00:18.119Z,13.60
2022-11-05T19:01:30.883Z,13.93
2022-11-05T19:02:35.804Z,14.10
2022-11-05T19:03:38.380Z,14.25
2022-11-05T19:04:50.547Z,14.60
2022-11-05T19:06:05.228Z,14.45
2022-11-05T19:07:08.795Z,13.93
2022-11-05T19:08:11.728Z,14.65
2022-11-05T19:09:14.390Z,14.88
2022-11-05T19:10:17.002Z,14.48
2022-11-05T19:11:22.783Z,14.27
2022-11-05T19:12:25.018Z,13.98
2022-11-05T19:13:27.356Z,14.40
2022-11-05T19:14:30.375Z,14.85
2022-11-05T19:15:32.847Z,14.70
2022-11-05T19:16:35.196Z,14.35
2022-11-05T19:17:37.753Z,13.65
2022-11-05T19:18:40.798Z,13.50
2022-11-05T19:19:43.239Z,14.90
2022-11-05T19:20:45.480Z,14.57
2022-11-05T19:21:48.019Z,14.05
2022-11-05T19:22:51.756Z,15.35
2022-11-05T19:23:56.679Z,16.35
2022-11-05T19:24:59.949Z,15.57
2022-11-05T19:26:08.859Z,15.73
2022-11-05T19:27:11.620Z,15.27
2022-11-05T19:28:16.418Z,15.18
2022-11-05T19:29:20.451Z,14.15
2022-11-05T19:30:23.088Z,14.88
2022-11-05T19:31:25.899Z,14.25
2022-11-05T19:32:31.956Z,15.50
2022-11-05T19:33:37.431Z,15.52
2022-11-05T19:34:43.128Z,14.82
2022-11-05T19:35:46.258Z,15.30
2022-11-05T19:36:49.279Z,14.70
2022-11-05T19:37:53.779Z,14.88
2022-11-05T19:38:59.214Z,15.00
2022-11-05T19:40:05.849Z,15.38
2022-11-05T19:41:11.647Z,14.80
2022-11-05T19:42:14.518Z,14.23
2022-11-05T19:43:17.353Z,15.38
2022-11-05T19:44:19.814Z,15.35
2022-11-05T19:45:43.619Z,14.45
2022-11-05T19:46:44.819Z,15.70
2022-11-05T19:47:47.184Z,16.35
2022-11-05T19:48:50.897Z,16.67
2022-11-05T19:49:53.476Z,15.98
2022-11-05T19:50:56.346Z,15.48
2022-11-05T19:51:58.875Z,15.43
2022-11-05T19:53:04.516Z,16.00
2022-11-05T19:54:07.506Z,15.73
2022-11-05T19:55:12.596Z,15.93
2022-11-05T19:56:17.965Z,17.30
2022-11-05T19:57:20.280Z,16.25
2022-11-05T19:58:22.816Z,15.40
2022-11-05T19:59:28.499Z,17.55
2022-11-05T20:00:30.609Z,17.02
2022-11-05T20:01:36.036Z,15.70
2022-11-05T20:02:39.018Z,15.43
2022-11-05T20:03:43.413Z,14.57
2022-11-05T20:04:45.732Z,15.18
2022-11-05T20:05:47.840Z,15.40
2022-11-05T20:06:50.043Z,13.82
2022-11-05T20:07:53.214Z,14.10
2022-11-05T20:10:23.080Z,13.98
2022-11-05T20:11:25.929Z,15.23
2022-11-05T20:12:28.061Z,13.98
2022-11-05T20:13:31.175Z,14.60
2022-11-05T20:14:33.667Z,13.95
2022-11-05T20:15:39.808Z,14.65
2022-11-05T20:16:43.034Z,14.32
2022-11-05T20:17:49.264Z,15.02
2022-11-05T20:18:51.657Z,13.57
2022-11-05T20:19:54.082Z,14.93
2022-11-05T20:21:07.801Z,13.65
2022-11-05T20:22:09.906Z,14.63
2022-11-05T20:23:13.397Z,14.52
2022-11-05T20:24:23.801Z,15.00
2022-11-05T20:25:27.071Z,14.18
2022-11-05T20:26:29.974Z,14.40
2022-11-05T20:27:31.981Z,14.15
2022-11-05T20:28:37.637Z,14.02
2022-11-05T20:29:39.783Z,14.57
2022-11-05T20:30:43.004Z,14.57
2022-11-05T20:31:45.145Z,15.32
2022-11-05T20:32:47.229Z,15.45
2022-11-05T20:33:49.842Z,14.75
2022-11-05T20:34:51.897Z,14.88
2022-11-05T20:36:01.585Z,14.98
2022-11-05T20:37:04.430Z,14.10
2022-11-05T20:38:06.789Z,14.48
2022-11-05T20:39:10.748Z,13.77
2022-11-05T20:40:15.085Z,14.70
2022-11-05T20:41:17.278Z,14.40
2022-11-05T20:42:19.739Z,14.93
2022-11-05T20:43:26.105Z,13.55
2022-11-05T20:44:32.358Z,14.73
2022-11-05T20:45:34.414Z,14.13
2022-11-05T20:46:37.311Z,14.60
2022-11-05T20:47:39.436Z,14.43
2022-11-05T20:48:42.692Z,14.65
2022-11-05T20:49:44.978Z,14.15
2022-11-05T20:50:48.018Z,13.88
2022-11-05T20:51:50.158Z,13.77
2022-11-05T20:52:52.212Z,14.98
2022-11-05T20:54:00.581Z,15.65
2022-11-05T20:55:09.159Z,15.05
2022-11-05T20:56:21.067Z,14.98
2022-11-05T20:57:23.093Z,15.15
2022-11-05T20:58:25.970Z,15.68
2022-11-05T20:59:29.509Z,16.15
2022-11-05T21:00:35.939Z,15.88
2022-11-05T21:01:38.246Z,16.17
2022-11-05T21:02:41.956Z,15.95
2022-11-05T21:03:45.480Z,15.68
2022-11-05T21:04:47.877Z,15.75
2022-11-05T21:05:54.511Z,16.30
2022-11-05T21:06:56.525Z,16.75
2022-11-05T21:07:59.037Z,16.27
2022-11-05T21:09:03.240Z,15.55
2022-11-05T21:10:06.516Z,15.85
2022-11-05T21:11:09.041Z,16.55
2022-11-05T21:12:12.550Z,16.42
2022-11-05T21:13:16.134Z,16.38
2022-11-05T21:14:19.229Z,15.70
2022-11-05T21:15:23.425Z,15.80
2022-11-05T21:16:26.697Z,16.15
2022-11-05T21:17:29.799Z,16.35
2022-11-05T21:18:35.617Z,15.57
2022-11-05T21:19:38.011Z,15.93
2022-11-05T21:20:40.274Z,16.33
2022-11-05T21:21:42.340Z,15.88
2022-11-05T21:22:45.926Z,14.88
2022-11-05T21:23:49.163Z,16.05
2022-11-05T21:24:51.191Z,15.18
2022-11-05T21:25:55.929Z,14.27
2022-11-05T21:27:00.771Z,14.60
2022-11-05T21:28:03.043Z,14.20
2022-11-05T21:29:04.980Z,14.65
2022-11-05T21:30:07.884Z,13.88
2022-11-05T21:31:10.516Z,14.40
2022-11-05T21:32:12.473Z,14.30
2022-11-05T21:33:15.821Z,14.20
2022-11-05T21:34:22.113Z,14.43
2022-11-05T21:35:26.109Z,13.88
2022-11-05T21:36:31.240Z,13.45
2022-11-05T21:37:33.237Z,14.25
2022-11-05T21:38:35.991Z,14.80
2022-11-05T21:39:37.994Z,14.40
2022-11-05T21:40:40.010Z,13.88
2022-11-05T21:41:42.887Z,13.90
2022-11-05T21:42:44.938Z,14.35
2022-11-05T21:43:47.087Z,14.32
2022-11-05T21:44:49.344Z,14.07
2022-11-05T21:45:52.676Z,14.18
2022-11-05T21:46:59.016Z,14.88
2022-11-05T21:48:01.875Z,15.07
2022-11-05T21:49:04.318Z,14.45
2022-11-05T21:50:06.813Z,15.05
2022-11-05T21:51:30.145Z,13.93
2022-11-05T21:52:51.714Z,13.55
2022-11-05T21:54:13.600Z,14.20
2022-11-05T21:55:34.431Z,13.77
2022-11-05T21:56:58.536Z,14.02
2022-11-05T21:58:22.583Z,13.77
2022-11-05T21:59:43.759Z,20.50
2022-11-05T22:00:45.731Z,15.27
2022-11-05T22:01:49.027Z,14.50
2022-11-05T22:02:52.406Z,14.55
2022-11-05T22:03:58.924Z,14.95
2022-11-05T22:05:06.133Z,13.70
2022-11-05T22:06:08.095Z,14.73
2022-11-05T22:07:15.237Z,13.50
2022-11-05T22:08:17.168Z,13.98
2022-11-05T22:09:19.295Z,15.23
2022-11-05T22:10:21.987Z,14.43
2022-11-05T22:11:24.064Z,14.43
2022-11-05T22:12:26.577Z,14.02
2022-11-05T22:13:28.887Z,14.57
2022-11-05T22:14:30.909Z,14.25
2022-11-05T22:15:33.352Z,15.18
2022-11-05T22:16:35.564Z,14.18
2022-11-05T22:17:40.380Z,14.10
2022-11-05T22:18:44.691Z,14.07
2022-11-05T22:19:54.041Z,13.38
2022-11-05T22:20:56.689Z,14.90
2022-11-05T22:21:58.753Z,14.80
2022-11-05T22:23:00.766Z,15.02
2022-11-05T22:24:02.852Z,14.00
2022-11-05T22:25:06.314Z,15.30
2022-11-05T22:26:10.418Z,14.85
2022-11-05T22:27:17.113Z,14.77
2022-11-05T22:28:19.062Z,15.05
2022-11-05T22:29:21.091Z,14.93
2022-11-05T22:30:23.900Z,15.88
2022-11-05T22:31:34.757Z,14.38
2022-11-05T22:32:39.197Z,14.38
2022-11-05T22:33:41.991Z,14.18
2022-11-05T22:34:47.107Z,15.20
2022-11-05T22:35:50.406Z,15.63
2022-11-05T22:36:53.076Z,15.90
2022-11-05T22:37:57.464Z,16.05
2022-11-05T22:38:59.784Z,15.55
2022-11-05T22:40:01.792Z,15.35
2022-11-05T22:41:14.467Z,16.08
2022-11-05T22:42:17.703Z,16.30
2022-11-05T22:43:19.874Z,16.00
2022-11-05T22:44:22.318Z,16.20
2022-11-05T22:45:24.502Z,16.17
2022-11-05T22:46:27.474Z,16.13
2022-11-05T22:47:32.110Z,16.70
2022-11-05T22:48:38.135Z,16.23
2022-11-05T22:49:40.641Z,16.08
2022-11-05T22:50:43.608Z,16.45
2022-11-05T22:51:46.714Z,16.25
2022-11-05T22:52:48.683Z,15.82
2022-11-05T22:53:50.906Z,15.52
2022-11-05T22:54:53.222Z,15.57
2022-11-05T22:55:55.433Z,15.80
2022-11-05T22:56:57.575Z,14.73
2022-11-05T22:58:00.581Z,16.65
2022-11-05T22:59:04.834Z,15.98
2022-11-05T23:00:15.170Z,15.50
2022-11-05T23:01:18.274Z,15.23
2022-11-05T23:02:20.593Z,16.85
2022-11-05T23:03:26.845Z,16.42
2022-11-05T23:04:29.765Z,15.30
2022-11-05T23:05:31.674Z,15.93
2022-11-05T23:06:52.366Z,15.43
2022-11-05T23:08:13.416Z,15.23
2022-11-05T23:09:51.157Z,15.80
2022-11-05T23:11:29.018Z,16.17
2022-11-05T23:12:34.827Z,16.73
2022-11-05T23:13:36.923Z,16.90
2022-11-05T23:14:42.028Z,16.27
2022-11-05T23:16:02.816Z,16.52
2022-11-05T23:17:23.223Z,17.05
2022-11-05T23:18:46.454Z,17.83
2022-11-05T23:20:09.568Z,17.55
2022-11-05T23:21:30.549Z,17.73
2022-11-05T23:22:52.439Z,17.33
2022-11-05T23:24:07.813Z,17.50
2022-11-05T23:25:13.512Z,17.15
2022-11-05T23:26:34.174Z,18.13
2022-11-05T23:27:42.853Z,17.15
2022-11-05T23:28:44.988Z,18.02
2022-11-05T23:29:47.023Z,18.05
2022-11-05T23:31:07.997Z,18.08
2022-11-05T23:32:25.036Z,18.77
2022-11-05T23:33:27.878Z,18.33
2022-11-05T23:34:29.985Z,17.85
2022-11-05T23:35:50.602Z,18.80
2022-11-05T23:37:12.194Z,17.67
2022-11-05T23:38:34.276Z,17.75
2022-11-05T23:39:42.228Z,16.92
2022-11-05T23:41:04.658Z,18.05
2022-11-05T23:42:25.569Z,17.50
2022-11-05T23:43:46.348Z,16.13
2022-11-05T23:45:11.716Z,17.98
2022-11-05T23:46:34.820Z,18.07
2022-11-05T23:47:57.923Z,16.85
2022-11-05T23:49:00.650Z,18.13
2022-11-05T23:50:02.720Z,17.33
2022-11-05T23:51:08.904Z,17.63
2022-11-05T23:52:13.257Z,18.98
2022-11-05T23:53:15.866Z,18.08
2022-11-05T23:54:17.793Z,18.33
2022-11-05T23:55:23.359Z,18.60
2022-11-05T23:56:25.393Z,18.63
2022-11-05T23:57:27.728Z,18.30
2022-11-05T23:58:30.493Z,18.80
2022-11-05T23:59:32.486Z,18.75
